DTTX/SFA METAR and TAF weather

Enter ICAO airport designator
Station Type Date Time Source
DTTX METAR 2020/11/25 23:00 UTC NOAA

DTTX 252300Z 00000KT 7000 FEW033 14/14 Q1020 NOSIG


Station Type Date Time Source
DTTX Decoded METAR 2020/11/25 23:00 UTC NOAA

Sfax El-Maou, Tunisia (DTTX) 34-43N 010-41E 23M
Nov 25, 2020 - 06:00 PM EST / 2020.11.25 2300 UTC
Wind: Calm:0
Visibility: 4 mile(s):0
Sky conditions: mostly clear
Temperature: 57 F (14 C)
Dew Point: 57 F (14 C)
Relative Humidity: 100%
Pressure (altimeter): 30.12 in. Hg (1020 hPa)
ob: DTTX 252300Z 00000KT 7000 FEW033 14/14 Q1020 NOSIG
cycle: 23

Station Type Date Time Source
DTTX TAF 2020/11/25 18:15 UTC NOAA

TAF DTTX 251700Z 2518/2618 13004KT 8000 SCT020 PROB30 2522/2608 4000 BR FEW014

Example: see airport list